sensor_id;sensor_type;location;lat;lon;timestamp;P1;durP1;ratioP1;P2;durP2;ratioP2
75941;SDS011;64622;46.220;19.878;2022-11-20T00:01:13;50.53;;;19.33;;
75941;SDS011;64622;46.220;19.878;2022-11-20T00:03:41;46.42;;;19.05;;
75941;SDS011;64622;46.220;19.878;2022-11-20T00:06:09;49.83;;;20.75;;
75941;SDS011;64622;46.220;19.878;2022-11-20T00:08:37;51.80;;;20.90;;
75941;SDS011;64622;46.220;19.878;2022-11-20T00:13:35;56.22;;;26.40;;
75941;SDS011;64622;46.220;19.878;2022-11-20T00:16:02;51.67;;;20.40;;
75941;SDS011;64622;46.220;19.878;2022-11-20T00:18:32;54.40;;;20.67;;
75941;SDS011;64622;46.220;19.878;2022-11-20T00:23:30;50.15;;;20.70;;
75941;SDS011;64622;46.220;19.878;2022-11-20T00:26:00;56.30;;;24.00;;
75941;SDS011;64622;46.220;19.878;2022-11-20T00:28:30;59.97;;;23.17;;
75941;SDS011;64622;46.220;19.878;2022-11-20T00:31:15;66.30;;;28.03;;
75941;SDS011;64622;46.220;19.878;2022-11-20T00:33:43;59.72;;;21.05;;
75941;SDS011;64622;46.220;19.878;2022-11-20T00:36:11;58.55;;;20.50;;
75941;SDS011;64622;46.220;19.878;2022-11-20T00:38:42;59.47;;;20.67;;
75941;SDS011;64622;46.220;19.878;2022-11-20T00:41:11;53.08;;;20.23;;
75941;SDS011;64622;46.220;19.878;2022-11-20T00:43:40;57.37;;;21.47;;
75941;SDS011;64622;46.220;19.878;2022-11-20T00:46:08;59.10;;;20.95;;
75941;SDS011;64622;46.220;19.878;2022-11-20T00:48:38;52.13;;;19.87;;
75941;SDS011;64622;46.220;19.878;2022-11-20T00:51:04;54.90;;;22.55;;
75941;SDS011;64622;46.220;19.878;2022-11-20T00:53:31;58.80;;;20.85;;
75941;SDS011;64622;46.220;19.878;2022-11-20T00:55:59;51.22;;;20.40;;
75941;SDS011;64622;46.220;19.878;2022-11-20T00:58:31;56.53;;;22.00;;
75941;SDS011;64622;46.220;19.878;2022-11-20T01:01:00;59.50;;;21.12;;
75941;SDS011;64622;46.220;19.878;2022-11-20T01:03:30;54.35;;;21.30;;
75941;SDS011;64622;46.220;19.878;2022-11-20T01:06:01;53.92;;;21.60;;
75941;SDS011;64622;46.220;19.878;2022-11-20T01:08:30;52.03;;;22.83;;
75941;SDS011;64622;46.220;19.878;2022-11-20T01:10:59;55.53;;;24.87;;
75941;SDS011;64622;46.220;19.878;2022-11-20T01:13:30;58.17;;;23.38;;
75941;SDS011;64622;46.220;19.878;2022-11-20T01:18:31;56.20;;;21.85;;
75941;SDS011;64622;46.220;19.878;2022-11-20T01:21:41;52.88;;;20.55;;
75941;SDS011;64622;46.220;19.878;2022-11-20T01:23:49;65.72;;;26.33;;
75941;SDS011;64622;46.220;19.878;2022-11-20T01:26:17;56.03;;;22.73;;
75941;SDS011;64622;46.220;19.878;2022-11-20T01:28:46;53.50;;;20.08;;
75941;SDS011;64622;46.220;19.878;2022-11-20T01:31:20;58.83;;;20.70;;
75941;SDS011;64622;46.220;19.878;2022-11-20T01:33:58;62.88;;;23.35;;
75941;SDS011;64622;46.220;19.878;2022-11-20T01:36:29;57.55;;;21.62;;
75941;SDS011;64622;46.220;19.878;2022-11-20T01:39:00;56.15;;;22.65;;
75941;SDS011;64622;46.220;19.878;2022-11-20T01:41:31;54.03;;;22.40;;
75941;SDS011;64622;46.220;19.878;2022-11-20T01:44:18;58.80;;;22.60;;
75941;SDS011;64622;46.220;19.878;2022-11-20T01:47:00;59.05;;;21.87;;
75941;SDS011;64622;46.220;19.878;2022-11-20T01:49:40;58.63;;;22.42;;
75941;SDS011;64622;46.220;19.878;2022-11-20T01:52:24;56.75;;;23.77;;
75941;SDS011;64622;46.220;19.878;2022-11-20T01:54:59;60.03;;;27.10;;
75941;SDS011;64622;46.220;19.878;2022-11-20T01:57:29;58.10;;;24.20;;
75941;SDS011;64622;46.220;19.878;2022-11-20T02:02:39;55.58;;;21.95;;
75941;SDS011;64622;46.220;19.878;2022-11-20T02:05:53;60.30;;;24.73;;
75941;SDS011;64622;46.220;19.878;2022-11-20T02:08:02;52.20;;;21.10;;
75941;SDS011;64622;46.220;19.878;2022-11-20T02:10:30;60.30;;;23.40;;
75941;SDS011;64622;46.220;19.878;2022-11-20T02:12:58;61.13;;;22.85;;
75941;SDS011;64622;46.220;19.878;2022-11-20T02:15:43;54.63;;;22.80;;
75941;SDS011;64622;46.220;19.878;2022-11-20T02:18:11;73.10;;;35.17;;
75941;SDS011;64622;46.220;19.878;2022-11-20T02:20:40;52.45;;;21.92;;
75941;SDS011;64622;46.220;19.878;2022-11-20T02:23:16;51.00;;;19.00;;
75941;SDS011;64622;46.220;19.878;2022-11-20T02:25:53;59.97;;;25.88;;
75941;SDS011;64622;46.220;19.878;2022-11-20T02:28:22;60.70;;;28.20;;
75941;SDS011;64622;46.220;19.878;2022-11-20T02:30:49;50.65;;;24.08;;
75941;SDS011;64622;46.220;19.878;2022-11-20T02:33:15;63.13;;;27.35;;
75941;SDS011;64622;46.220;19.878;2022-11-20T02:35:43;50.38;;;21.77;;
75941;SDS011;64622;46.220;19.878;2022-11-20T02:38:11;61.88;;;24.17;;
75941;SDS011;64622;46.220;19.878;2022-11-20T02:40:38;52.60;;;22.10;;
75941;SDS011;64622;46.220;19.878;2022-11-20T02:43:04;54.95;;;22.67;;
75941;SDS011;64622;46.220;19.878;2022-11-20T02:45:31;53.15;;;21.73;;
75941;SDS011;64622;46.220;19.878;2022-11-20T02:47:57;48.97;;;21.67;;
75941;SDS011;64622;46.220;19.878;2022-11-20T02:50:24;58.50;;;22.83;;
75941;SDS011;64622;46.220;19.878;2022-11-20T02:52:51;53.72;;;22.75;;
75941;SDS011;64622;46.220;19.878;2022-11-20T02:55:18;56.97;;;23.75;;
75941;SDS011;64622;46.220;19.878;2022-11-20T02:57:44;53.85;;;23.12;;
75941;SDS011;64622;46.220;19.878;2022-11-20T03:00:11;55.53;;;21.58;;
75941;SDS011;64622;46.220;19.878;2022-11-20T03:02:38;51.78;;;21.70;;
75941;SDS011;64622;46.220;19.878;2022-11-20T03:05:05;57.80;;;25.00;;
75941;SDS011;64622;46.220;19.878;2022-11-20T03:07:31;56.00;;;24.58;;
75941;SDS011;64622;46.220;19.878;2022-11-20T03:09:58;52.28;;;20.75;;
75941;SDS011;64622;46.220;19.878;2022-11-20T03:12:25;49.55;;;20.92;;
75941;SDS011;64622;46.220;19.878;2022-11-20T03:14:51;51.03;;;22.05;;
75941;SDS011;64622;46.220;19.878;2022-11-20T03:17:17;52.00;;;22.23;;
75941;SDS011;64622;46.220;19.878;2022-11-20T03:19:44;52.65;;;22.00;;
75941;SDS011;64622;46.220;19.878;2022-11-20T03:22:11;51.10;;;20.73;;
75941;SDS011;64622;46.220;19.878;2022-11-20T03:24:37;44.35;;;19.50;;
75941;SDS011;64622;46.220;19.878;2022-11-20T03:27:07;42.35;;;17.80;;
75941;SDS011;64622;46.220;19.878;2022-11-20T03:29:34;49.65;;;19.62;;
75941;SDS011;64622;46.220;19.878;2022-11-20T03:32:01;50.58;;;21.02;;
75941;SDS011;64622;46.220;19.878;2022-11-20T03:34:28;52.90;;;20.88;;
75941;SDS011;64622;46.220;19.878;2022-11-20T03:36:54;50.75;;;21.85;;
75941;SDS011;64622;46.220;19.878;2022-11-20T03:39:21;43.75;;;17.70;;
75941;SDS011;64622;46.220;19.878;2022-11-20T03:41:47;54.53;;;23.23;;
75941;SDS011;64622;46.220;19.878;2022-11-20T03:44:14;58.08;;;23.85;;
75941;SDS011;64622;46.220;19.878;2022-11-20T03:46:40;58.30;;;23.70;;
75941;SDS011;64622;46.220;19.878;2022-11-20T03:49:07;64.55;;;30.50;;
75941;SDS011;64622;46.220;19.878;2022-11-20T03:51:34;61.25;;;30.30;;
75941;SDS011;64622;46.220;19.878;2022-11-20T03:54:02;52.88;;;23.75;;
75941;SDS011;64622;46.220;19.878;2022-11-20T03:56:32;62.50;;;24.42;;
75941;SDS011;64622;46.220;19.878;2022-11-20T03:59:01;61.40;;;26.83;;
75941;SDS011;64622;46.220;19.878;2022-11-20T04:01:32;67.20;;;29.85;;
75941;SDS011;64622;46.220;19.878;2022-11-20T04:04:00;70.90;;;26.90;;
75941;SDS011;64622;46.220;19.878;2022-11-20T04:06:29;63.63;;;26.15;;
75941;SDS011;64622;46.220;19.878;2022-11-20T04:08:57;61.75;;;29.35;;
75941;SDS011;64622;46.220;19.878;2022-11-20T04:11:25;62.70;;;28.55;;
75941;SDS011;64622;46.220;19.878;2022-11-20T04:13:57;47.05;;;22.27;;
75941;SDS011;64622;46.220;19.878;2022-11-20T04:16:26;57.78;;;24.50;;
75941;SDS011;64622;46.220;19.878;2022-11-20T04:18:55;56.65;;;27.37;;
75941;SDS011;64622;46.220;19.878;2022-11-20T04:21:24;56.03;;;23.15;;
75941;SDS011;64622;46.220;19.878;2022-11-20T04:23:51;50.47;;;22.90;;
75941;SDS011;64622;46.220;19.878;2022-11-20T04:26:19;55.25;;;25.42;;
75941;SDS011;64622;46.220;19.878;2022-11-20T04:28:46;53.72;;;22.50;;
75941;SDS011;64622;46.220;19.878;2022-11-20T04:31:17;56.83;;;24.45;;
75941;SDS011;64622;46.220;19.878;2022-11-20T04:33:46;56.78;;;23.60;;
75941;SDS011;64622;46.220;19.878;2022-11-20T04:36:14;55.55;;;24.63;;
75941;SDS011;64622;46.220;19.878;2022-11-20T04:38:42;52.75;;;23.25;;
75941;SDS011;64622;46.220;19.878;2022-11-20T04:41:14;53.33;;;21.77;;
75941;SDS011;64622;46.220;19.878;2022-11-20T04:43:46;62.08;;;28.17;;
75941;SDS011;64622;46.220;19.878;2022-11-20T04:46:17;58.03;;;24.70;;
75941;SDS011;64622;46.220;19.878;2022-11-20T04:48:44;49.15;;;24.90;;
75941;SDS011;64622;46.220;19.878;2022-11-20T04:51:11;48.42;;;23.00;;
75941;SDS011;64622;46.220;19.878;2022-11-20T04:53:38;51.37;;;22.75;;
75941;SDS011;64622;46.220;19.878;2022-11-20T04:56:06;51.22;;;22.15;;
75941;SDS011;64622;46.220;19.878;2022-11-20T04:58:35;49.25;;;20.90;;
75941;SDS011;64622;46.220;19.878;2022-11-20T05:01:06;58.05;;;23.62;;
75941;SDS011;64622;46.220;19.878;2022-11-20T05:03:35;57.05;;;25.62;;
75941;SDS011;64622;46.220;19.878;2022-11-20T05:06:02;49.40;;;20.27;;
75941;SDS011;64622;46.220;19.878;2022-11-20T05:08:29;50.45;;;22.60;;
75941;SDS011;64622;46.220;19.878;2022-11-20T05:13:37;46.65;;;21.05;;
75941;SDS011;64622;46.220;19.878;2022-11-20T05:16:09;52.45;;;25.27;;
75941;SDS011;64622;46.220;19.878;2022-11-20T05:18:37;48.67;;;24.60;;
75941;SDS011;64622;46.220;19.878;2022-11-20T05:21:05;44.72;;;20.73;;
75941;SDS011;64622;46.220;19.878;2022-11-20T05:23:33;52.78;;;22.10;;
75941;SDS011;64622;46.220;19.878;2022-11-20T05:26:00;56.75;;;20.55;;
75941;SDS011;64622;46.220;19.878;2022-11-20T05:28:28;48.65;;;21.25;;
75941;SDS011;64622;46.220;19.878;2022-11-20T05:30:56;60.20;;;24.43;;
75941;SDS011;64622;46.220;19.878;2022-11-20T05:33:29;49.05;;;21.52;;
75941;SDS011;64622;46.220;19.878;2022-11-20T05:35:59;52.28;;;22.05;;
75941;SDS011;64622;46.220;19.878;2022-11-20T05:38:26;50.70;;;20.48;;
75941;SDS011;64622;46.220;19.878;2022-11-20T05:40:52;48.05;;;18.33;;
75941;SDS011;64622;46.220;19.878;2022-11-20T05:43:19;45.70;;;18.30;;
75941;SDS011;64622;46.220;19.878;2022-11-20T05:45:54;54.92;;;21.90;;
75941;SDS011;64622;46.220;19.878;2022-11-20T05:48:22;52.70;;;24.10;;
75941;SDS011;64622;46.220;19.878;2022-11-20T05:50:48;48.05;;;21.85;;
75941;SDS011;64622;46.220;19.878;2022-11-20T05:53:14;45.40;;;20.17;;
75941;SDS011;64622;46.220;19.878;2022-11-20T05:55:41;47.13;;;21.75;;
75941;SDS011;64622;46.220;19.878;2022-11-20T05:58:08;43.17;;;17.73;;
75941;SDS011;64622;46.220;19.878;2022-11-20T06:00:34;42.85;;;19.40;;
75941;SDS011;64622;46.220;19.878;2022-11-20T06:03:02;41.63;;;18.65;;
75941;SDS011;64622;46.220;19.878;2022-11-20T06:05:28;46.47;;;18.85;;
75941;SDS011;64622;46.220;19.878;2022-11-20T06:07:54;55.20;;;23.38;;
75941;SDS011;64622;46.220;19.878;2022-11-20T06:10:21;52.50;;;23.58;;
75941;SDS011;64622;46.220;19.878;2022-11-20T06:12:48;62.05;;;25.98;;
75941;SDS011;64622;46.220;19.878;2022-11-20T06:15:14;54.42;;;26.17;;
75941;SDS011;64622;46.220;19.878;2022-11-20T06:17:41;50.45;;;23.38;;
75941;SDS011;64622;46.220;19.878;2022-11-20T06:20:07;43.35;;;19.12;;
75941;SDS011;64622;46.220;19.878;2022-11-20T06:22:34;42.88;;;20.52;;
75941;SDS011;64622;46.220;19.878;2022-11-20T06:25:01;42.40;;;19.50;;
75941;SDS011;64622;46.220;19.878;2022-11-20T06:27:27;45.83;;;22.25;;
75941;SDS011;64622;46.220;19.878;2022-11-20T06:29:54;52.03;;;23.83;;
75941;SDS011;64622;46.220;19.878;2022-11-20T06:32:20;39.43;;;16.30;;
75941;SDS011;64622;46.220;19.878;2022-11-20T06:34:47;46.30;;;23.55;;
75941;SDS011;64622;46.220;19.878;2022-11-20T06:37:13;41.20;;;20.12;;
75941;SDS011;64622;46.220;19.878;2022-11-20T06:39:40;44.20;;;19.12;;
75941;SDS011;64622;46.220;19.878;2022-11-20T06:42:06;47.55;;;20.58;;
75941;SDS011;64622;46.220;19.878;2022-11-20T06:44:33;47.33;;;19.77;;
75941;SDS011;64622;46.220;19.878;2022-11-20T06:46:59;46.78;;;19.45;;
75941;SDS011;64622;46.220;19.878;2022-11-20T06:49:26;43.85;;;17.85;;
75941;SDS011;64622;46.220;19.878;2022-11-20T06:51:52;53.45;;;22.65;;
75941;SDS011;64622;46.220;19.878;2022-11-20T06:54:19;52.17;;;21.30;;
75941;SDS011;64622;46.220;19.878;2022-11-20T06:56:48;41.90;;;19.70;;
75941;SDS011;64622;46.220;19.878;2022-11-20T06:59:15;36.90;;;17.80;;
75941;SDS011;64622;46.220;19.878;2022-11-20T07:01:42;42.78;;;21.15;;
75941;SDS011;64622;46.220;19.878;2022-11-20T07:04:08;45.80;;;20.48;;
75941;SDS011;64622;46.220;19.878;2022-11-20T07:06:34;41.72;;;19.35;;
75941;SDS011;64622;46.220;19.878;2022-11-20T07:09:01;45.33;;;20.08;;
75941;SDS011;64622;46.220;19.878;2022-11-20T07:11:28;44.67;;;19.25;;
75941;SDS011;64622;46.220;19.878;2022-11-20T07:13:56;35.78;;;17.10;;
75941;SDS011;64622;46.220;19.878;2022-11-20T07:16:23;42.75;;;19.70;;
75941;SDS011;64622;46.220;19.878;2022-11-20T07:18:49;36.17;;;18.15;;
75941;SDS011;64622;46.220;19.878;2022-11-20T07:21:15;40.28;;;19.42;;
75941;SDS011;64622;46.220;19.878;2022-11-20T07:23:43;35.67;;;17.65;;
75941;SDS011;64622;46.220;19.878;2022-11-20T07:26:10;38.40;;;18.08;;
75941;SDS011;64622;46.220;19.878;2022-11-20T07:28:37;38.92;;;18.15;;
75941;SDS011;64622;46.220;19.878;2022-11-20T07:31:04;39.65;;;18.92;;
75941;SDS011;64622;46.220;19.878;2022-11-20T07:33:33;37.58;;;17.45;;
75941;SDS011;64622;46.220;19.878;2022-11-20T07:35:59;37.88;;;16.35;;
75941;SDS011;64622;46.220;19.878;2022-11-20T07:38:26;38.70;;;17.37;;
75941;SDS011;64622;46.220;19.878;2022-11-20T07:40:54;40.17;;;19.20;;
75941;SDS011;64622;46.220;19.878;2022-11-20T07:43:23;31.62;;;14.27;;
75941;SDS011;64622;46.220;19.878;2022-11-20T07:45:51;45.53;;;20.62;;
75941;SDS011;64622;46.220;19.878;2022-11-20T07:48:18;47.33;;;23.87;;
75941;SDS011;64622;46.220;19.878;2022-11-20T07:50:45;49.38;;;24.50;;
75941;SDS011;64622;46.220;19.878;2022-11-20T07:53:12;42.13;;;20.88;;
75941;SDS011;64622;46.220;19.878;2022-11-20T07:55:39;47.15;;;21.27;;
75941;SDS011;64622;46.220;19.878;2022-11-20T07:58:06;77.62;;;39.20;;
75941;SDS011;64622;46.220;19.878;2022-11-20T08:00:33;47.95;;;24.75;;
75941;SDS011;64622;46.220;19.878;2022-11-20T08:03:02;57.28;;;32.33;;
75941;SDS011;64622;46.220;19.878;2022-11-20T08:05:32;49.03;;;27.58;;
75941;SDS011;64622;46.220;19.878;2022-11-20T08:07:58;40.42;;;19.02;;
75941;SDS011;64622;46.220;19.878;2022-11-20T08:10:25;42.00;;;18.35;;
75941;SDS011;64622;46.220;19.878;2022-11-20T08:12:54;34.85;;;16.25;;
75941;SDS011;64622;46.220;19.878;2022-11-20T08:15:39;34.70;;;17.55;;
75941;SDS011;64622;46.220;19.878;2022-11-20T08:18:12;38.28;;;21.42;;
75941;SDS011;64622;46.220;19.878;2022-11-20T08:20:39;38.88;;;19.25;;
75941;SDS011;64622;46.220;19.878;2022-11-20T08:23:06;35.85;;;15.02;;
75941;SDS011;64622;46.220;19.878;2022-11-20T08:25:34;41.67;;;21.02;;
75941;SDS011;64622;46.220;19.878;2022-11-20T08:28:04;35.90;;;15.98;;
75941;SDS011;64622;46.220;19.878;2022-11-20T08:30:32;36.17;;;17.42;;
75941;SDS011;64622;46.220;19.878;2022-11-20T08:33:03;48.28;;;21.80;;
75941;SDS011;64622;46.220;19.878;2022-11-20T08:35:37;39.38;;;17.25;;
75941;SDS011;64622;46.220;19.878;2022-11-20T08:38:05;38.97;;;19.08;;
75941;SDS011;64622;46.220;19.878;2022-11-20T08:40:32;33.58;;;15.68;;
75941;SDS011;64622;46.220;19.878;2022-11-20T08:42:59;44.58;;;19.20;;
75941;SDS011;64622;46.220;19.878;2022-11-20T08:45:26;48.20;;;21.42;;
75941;SDS011;64622;46.220;19.878;2022-11-20T08:47:53;44.00;;;20.23;;
75941;SDS011;64622;46.220;19.878;2022-11-20T08:50:19;43.30;;;19.35;;
75941;SDS011;64622;46.220;19.878;2022-11-20T08:52:46;54.90;;;22.20;;
75941;SDS011;64622;46.220;19.878;2022-11-20T08:55:12;42.78;;;18.75;;
75941;SDS011;64622;46.220;19.878;2022-11-20T08:57:39;32.13;;;14.73;;
75941;SDS011;64622;46.220;19.878;2022-11-20T09:00:06;42.58;;;19.02;;
75941;SDS011;64622;46.220;19.878;2022-11-20T09:02:34;51.22;;;21.30;;
75941;SDS011;64622;46.220;19.878;2022-11-20T09:05:00;54.13;;;21.90;;
75941;SDS011;64622;46.220;19.878;2022-11-20T09:07:28;44.40;;;19.20;;
75941;SDS011;64622;46.220;19.878;2022-11-20T09:09:55;37.60;;;17.92;;
75941;SDS011;64622;46.220;19.878;2022-11-20T09:12:22;25.77;;;12.00;;
75941;SDS011;64622;46.220;19.878;2022-11-20T09:14:48;33.47;;;13.85;;
75941;SDS011;64622;46.220;19.878;2022-11-20T09:17:15;30.40;;;14.87;;
75941;SDS011;64622;46.220;19.878;2022-11-20T09:19:42;39.25;;;16.17;;
75941;SDS011;64622;46.220;19.878;2022-11-20T09:22:09;33.03;;;15.00;;
75941;SDS011;64622;46.220;19.878;2022-11-20T09:24:36;29.42;;;12.95;;
75941;SDS011;64622;46.220;19.878;2022-11-20T09:27:03;24.45;;;10.70;;
75941;SDS011;64622;46.220;19.878;2022-11-20T09:29:31;33.42;;;15.73;;
75941;SDS011;64622;46.220;19.878;2022-11-20T09:31:58;54.03;;;27.52;;
75941;SDS011;64622;46.220;19.878;2022-11-20T09:34:24;36.80;;;15.70;;
75941;SDS011;64622;46.220;19.878;2022-11-20T09:36:50;28.77;;;13.18;;
75941;SDS011;64622;46.220;19.878;2022-11-20T09:39:17;35.97;;;14.73;;
75941;SDS011;64622;46.220;19.878;2022-11-20T09:41:51;42.30;;;21.58;;
75941;SDS011;64622;46.220;19.878;2022-11-20T09:50:16;27.07;;;13.13;;
75941;SDS011;64622;46.220;19.878;2022-11-20T09:55:40;30.00;;;13.60;;
75941;SDS011;64622;46.220;19.878;2022-11-20T09:58:07;43.63;;;22.73;;
75941;SDS011;64622;46.220;19.878;2022-11-20T10:00:42;31.87;;;16.23;;
75941;SDS011;64622;46.220;19.878;2022-11-20T10:03:13;29.00;;;13.67;;
75941;SDS011;64622;46.220;19.878;2022-11-20T10:05:46;28.75;;;14.93;;
75941;SDS011;64622;46.220;19.878;2022-11-20T10:08:25;26.20;;;13.43;;
75941;SDS011;64622;46.220;19.878;2022-11-20T10:29:33;31.43;;;15.00;;
75941;SDS011;64622;46.220;19.878;2022-11-20T10:32:13;42.78;;;25.55;;
75941;SDS011;64622;46.220;19.878;2022-11-20T10:37:27;28.17;;;15.13;;
75941;SDS011;64622;46.220;19.878;2022-11-20T10:42:48;25.67;;;13.40;;
75941;SDS011;64622;46.220;19.878;2022-11-20T10:48:32;73.00;;;36.70;;
75941;SDS011;64622;46.220;19.878;2022-11-20T10:50:51;28.38;;;13.18;;
75941;SDS011;64622;46.220;19.878;2022-11-20T10:53:51;27.77;;;13.60;;
75941;SDS011;64622;46.220;19.878;2022-11-20T10:56:23;25.23;;;11.97;;
75941;SDS011;64622;46.220;19.878;2022-11-20T11:02:31;34.50;;;16.70;;
75941;SDS011;64622;46.220;19.878;2022-11-20T11:05:05;27.90;;;14.52;;
75941;SDS011;64622;46.220;19.878;2022-11-20T11:07:38;23.48;;;12.57;;
75941;SDS011;64622;46.220;19.878;2022-11-20T11:12:47;23.80;;;12.10;;
75941;SDS011;64622;46.220;19.878;2022-11-20T11:15:15;26.20;;;13.43;;
75941;SDS011;64622;46.220;19.878;2022-11-20T11:18:03;32.58;;;14.27;;
75941;SDS011;64622;46.220;19.878;2022-11-20T11:20:30;29.25;;;15.15;;
75941;SDS011;64622;46.220;19.878;2022-11-20T11:22:58;27.33;;;14.93;;
75941;SDS011;64622;46.220;19.878;2022-11-20T11:25:30;30.77;;;14.13;;
75941;SDS011;64622;46.220;19.878;2022-11-20T11:28:20;22.30;;;11.77;;
75941;SDS011;64622;46.220;19.878;2022-11-20T11:30:48;22.05;;;12.50;;
75941;SDS011;64622;46.220;19.878;2022-11-20T11:33:19;23.30;;;11.77;;
75941;SDS011;64622;46.220;19.878;2022-11-20T11:35:49;26.20;;;12.33;;
75941;SDS011;64622;46.220;19.878;2022-11-20T11:38:23;21.75;;;11.50;;
75941;SDS011;64622;46.220;19.878;2022-11-20T11:40:55;24.40;;;12.93;;
75941;SDS011;64622;46.220;19.878;2022-11-20T11:43:25;24.90;;;13.27;;
75941;SDS011;64622;46.220;19.878;2022-11-20T11:48:56;23.07;;;12.73;;
75941;SDS011;64622;46.220;19.878;2022-11-20T11:57:01;28.77;;;14.10;;
75941;SDS011;64622;46.220;19.878;2022-11-20T12:00:11;24.98;;;12.80;;
75941;SDS011;64622;46.220;19.878;2022-11-20T12:02:37;25.27;;;11.37;;
75941;SDS011;64622;46.220;19.878;2022-11-20T12:05:20;30.20;;;17.02;;
75941;SDS011;64622;46.220;19.878;2022-11-20T12:08:03;43.67;;;23.92;;
75941;SDS011;64622;46.220;19.878;2022-11-20T12:16:02;23.13;;;11.97;;
75941;SDS011;64622;46.220;19.878;2022-11-20T12:18:30;25.50;;;12.05;;
75941;SDS011;64622;46.220;19.878;2022-11-20T12:24:26;23.30;;;11.90;;
75941;SDS011;64622;46.220;19.878;2022-11-20T12:29:56;43.57;;;23.63;;
75941;SDS011;64622;46.220;19.878;2022-11-20T12:35:28;31.58;;;17.62;;
75941;SDS011;64622;46.220;19.878;2022-11-20T12:48:46;26.60;;;13.57;;
75941;SDS011;64622;46.220;19.878;2022-11-20T12:56:36;31.23;;;17.03;;
75941;SDS011;64622;46.220;19.878;2022-11-20T13:07:15;27.75;;;14.60;;
75941;SDS011;64622;46.220;19.878;2022-11-20T13:09:44;24.57;;;11.83;;
75941;SDS011;64622;46.220;19.878;2022-11-20T13:12:33;27.50;;;14.10;;
75941;SDS011;64622;46.220;19.878;2022-11-20T13:17:54;28.08;;;14.15;;
75941;SDS011;64622;46.220;19.878;2022-11-20T13:20:25;29.05;;;13.07;;
75941;SDS011;64622;46.220;19.878;2022-11-20T13:22:54;25.10;;;13.00;;
75941;SDS011;64622;46.220;19.878;2022-11-20T13:25:27;24.02;;;12.93;;
75941;SDS011;64622;46.220;19.878;2022-11-20T13:27:56;32.72;;;13.50;;
75941;SDS011;64622;46.220;19.878;2022-11-20T13:30:28;44.53;;;19.70;;
75941;SDS011;64622;46.220;19.878;2022-11-20T13:32:57;28.23;;;14.00;;
75941;SDS011;64622;46.220;19.878;2022-11-20T13:38:08;26.67;;;14.23;;
75941;SDS011;64622;46.220;19.878;2022-11-20T13:40:36;24.40;;;12.40;;
75941;SDS011;64622;46.220;19.878;2022-11-20T13:43:19;24.12;;;11.45;;
75941;SDS011;64622;46.220;19.878;2022-11-20T13:45:59;25.17;;;12.52;;
75941;SDS011;64622;46.220;19.878;2022-11-20T13:48:29;32.90;;;15.67;;
75941;SDS011;64622;46.220;19.878;2022-11-20T13:54:14;35.55;;;18.67;;
75941;SDS011;64622;46.220;19.878;2022-11-20T14:02:40;31.10;;;16.13;;
75941;SDS011;64622;46.220;19.878;2022-11-20T14:05:18;43.53;;;23.00;;
75941;SDS011;64622;46.220;19.878;2022-11-20T14:07:49;41.40;;;24.05;;
75941;SDS011;64622;46.220;19.878;2022-11-20T14:10:21;52.55;;;29.70;;
75941;SDS011;64622;46.220;19.878;2022-11-20T14:12:52;28.75;;;15.55;;
75941;SDS011;64622;46.220;19.878;2022-11-20T14:15:30;27.30;;;15.50;;
75941;SDS011;64622;46.220;19.878;2022-11-20T14:17:59;28.65;;;14.55;;
75941;SDS011;64622;46.220;19.878;2022-11-20T14:20:36;27.45;;;13.70;;
75941;SDS011;64622;46.220;19.878;2022-11-20T14:23:07;26.05;;;13.35;;
75941;SDS011;64622;46.220;19.878;2022-11-20T14:25:37;28.50;;;13.48;;
75941;SDS011;64622;46.220;19.878;2022-11-20T14:28:24;30.30;;;13.40;;
75941;SDS011;64622;46.220;19.878;2022-11-20T14:30:53;34.28;;;17.15;;
75941;SDS011;64622;46.220;19.878;2022-11-20T14:33:21;25.62;;;14.10;;
75941;SDS011;64622;46.220;19.878;2022-11-20T14:35:51;29.52;;;14.93;;
75941;SDS011;64622;46.220;19.878;2022-11-20T14:38:24;29.80;;;16.45;;
75941;SDS011;64622;46.220;19.878;2022-11-20T14:41:05;30.90;;;15.67;;
75941;SDS011;64622;46.220;19.878;2022-11-20T14:43:33;34.88;;;18.40;;
75941;SDS011;64622;46.220;19.878;2022-11-20T14:46:07;33.92;;;20.15;;
75941;SDS011;64622;46.220;19.878;2022-11-20T14:48:39;40.95;;;22.05;;
75941;SDS011;64622;46.220;19.878;2022-11-20T14:51:22;54.90;;;27.23;;
75941;SDS011;64622;46.220;19.878;2022-11-20T14:53:52;51.80;;;25.97;;
75941;SDS011;64622;46.220;19.878;2022-11-20T14:56:23;50.30;;;24.85;;
75941;SDS011;64622;46.220;19.878;2022-11-20T14:58:56;34.47;;;19.20;;
75941;SDS011;64622;46.220;19.878;2022-11-20T15:01:28;33.80;;;19.52;;
75941;SDS011;64622;46.220;19.878;2022-11-20T15:04:14;39.25;;;21.45;;
75941;SDS011;64622;46.220;19.878;2022-11-20T15:06:49;43.77;;;24.33;;
75941;SDS011;64622;46.220;19.878;2022-11-20T15:09:17;53.63;;;27.05;;
75941;SDS011;64622;46.220;19.878;2022-11-20T15:11:54;49.58;;;27.92;;
75941;SDS011;64622;46.220;19.878;2022-11-20T15:14:23;35.85;;;19.52;;
75941;SDS011;64622;46.220;19.878;2022-11-20T15:16:51;28.65;;;14.55;;
75941;SDS011;64622;46.220;19.878;2022-11-20T15:19:20;31.13;;;14.40;;
75941;SDS011;64622;46.220;19.878;2022-11-20T15:21:49;25.92;;;12.77;;
75941;SDS011;64622;46.220;19.878;2022-11-20T15:24:16;34.35;;;17.23;;
75941;SDS011;64622;46.220;19.878;2022-11-20T15:26:44;25.70;;;11.90;;
75941;SDS011;64622;46.220;19.878;2022-11-20T15:29:11;28.35;;;13.95;;
75941;SDS011;64622;46.220;19.878;2022-11-20T15:31:40;36.73;;;19.83;;
75941;SDS011;64622;46.220;19.878;2022-11-20T15:34:13;29.50;;;16.00;;
75941;SDS011;64622;46.220;19.878;2022-11-20T15:36:41;35.25;;;17.25;;
75941;SDS011;64622;46.220;19.878;2022-11-20T15:39:09;65.18;;;28.40;;
75941;SDS011;64622;46.220;19.878;2022-11-20T15:41:37;57.62;;;25.62;;
75941;SDS011;64622;46.220;19.878;2022-11-20T15:44:05;37.97;;;20.17;;
75941;SDS011;64622;46.220;19.878;2022-11-20T15:46:32;27.40;;;14.00;;
75941;SDS011;64622;46.220;19.878;2022-11-20T15:49:14;27.98;;;13.05;;
75941;SDS011;64622;46.220;19.878;2022-11-20T15:51:46;29.00;;;13.15;;
75941;SDS011;64622;46.220;19.878;2022-11-20T15:54:18;29.70;;;12.57;;
75941;SDS011;64622;46.220;19.878;2022-11-20T15:56:47;29.07;;;14.73;;
75941;SDS011;64622;46.220;19.878;2022-11-20T15:59:15;29.60;;;15.95;;
75941;SDS011;64622;46.220;19.878;2022-11-20T16:01:42;59.92;;;36.42;;
75941;SDS011;64622;46.220;19.878;2022-11-20T16:04:10;35.30;;;18.33;;
75941;SDS011;64622;46.220;19.878;2022-11-20T16:06:38;33.20;;;18.37;;
75941;SDS011;64622;46.220;19.878;2022-11-20T16:09:05;33.23;;;16.03;;
75941;SDS011;64622;46.220;19.878;2022-11-20T16:11:32;30.52;;;15.63;;
75941;SDS011;64622;46.220;19.878;2022-11-20T16:14:02;32.38;;;16.08;;
75941;SDS011;64622;46.220;19.878;2022-11-20T16:16:48;31.50;;;14.85;;
75941;SDS011;64622;46.220;19.878;2022-11-20T16:19:15;36.72;;;17.60;;
75941;SDS011;64622;46.220;19.878;2022-11-20T16:21:41;31.53;;;16.03;;